Time;durP1;ratioP1;P1;durP2;ratioP2;P2;SDS_P1;SDS_P2;PMS_P1;PMS_P2;Temp;Humidity;BMP_temperature;BMP_pressure;BME280_temperature;BME280_humidity;BME280_pressure;Samples;Min_cycle;Max_cycle;Signal;HPM_P1;HPM_P2
2022/11/20 00:01:27;;;;;;;14.60;10.87;;;2.20;1.00;;;;;;5057637;28;20499;-70
2022/11/20 00:03:57;;;;;;;15.13;10.40;;;2.30;1.00;;;;;;5058952;28;20492;-69
2022/11/20 00:06:26;;;;;;;14.70;10.07;;;2.30;1.00;;;;;;5058759;28;20498;-69
2022/11/20 00:08:56;;;;;;;14.10;10.67;;;2.30;1.00;;;;;;5057507;28;20781;-69
2022/11/20 00:11:25;;;;;;;14.13;9.70;;;2.30;1.00;;;;;;5059523;28;20561;-70
2022/11/20 00:13:56;;;;;;;11.80;8.63;;;2.30;1.00;;;;;;5056840;28;20444;-69
2022/11/20 00:16:26;;;;;;;14.43;10.23;;;2.30;1.00;;;;;;5058794;28;20470;-69
2022/11/20 00:18:55;;;;;;;12.47;9.37;;;2.30;9.40;;;;;;5058803;28;20519;-69
2022/11/20 00:21:24;;;;;;;15.97;10.37;;;2.30;6.50;;;;;;5038848;28;20482;-69
2022/11/20 00:23:53;;;;;;;15.20;10.03;;;2.30;23.70;;;;;;5038747;28;20486;-69
2022/11/20 00:26:22;;;;;;;16.00;10.70;;;2.30;47.90;;;;;;5038755;28;20499;-70
2022/11/20 00:28:54;;;;;;;14.23;10.33;;;2.40;75.00;;;;;;5038995;28;20741;-69
2022/11/20 00:31:23;;;;;;;14.80;10.07;;;2.40;93.20;;;;;;5040690;28;20499;-70
2022/11/20 00:33:53;;;;;;;13.90;9.50;;;2.40;57.20;;;;;;5038388;28;20542;-69
2022/11/20 00:36:25;;;;;;;11.50;7.90;;;2.40;62.60;;;;;;5038873;28;20471;-69
2022/11/20 00:38:56;;;;;;;13.30;9.90;;;2.40;67.70;;;;;;5038646;28;20491;-69
2022/11/20 00:41:24;;;;;;;13.67;10.03;;;2.30;99.90;;;;;;5047206;28;20490;-69
2022/11/20 00:43:54;;;;;;;14.83;11.40;;;2.40;99.90;;;;;;5058579;28;20519;-70
2022/11/20 00:46:27;;;;;;;16.17;12.00;;;2.40;99.90;;;;;;5058288;28;20466;-70
2022/11/20 00:48:54;;;;;;;13.70;10.30;;;2.40;99.90;;;;;;5058426;28;20494;-69
2022/11/20 00:51:24;;;;;;;16.20;11.23;;;2.50;99.90;;;;;;5052744;28;20426;-70
2022/11/20 00:53:51;;;;;;;17.23;12.43;;;2.50;99.90;;;;;;5038991;28;20483;-70
2022/11/20 00:56:20;;;;;;;14.93;11.00;;;2.60;99.90;;;;;;5038331;28;20467;-70
2022/11/20 00:58:54;;;;;;;16.33;12.10;;;2.60;99.90;;;;;;5038194;28;20467;-70
2022/11/20 01:01:23;;;;;;;14.40;11.20;;;2.60;99.90;;;;;;5038734;28;20470;-70
2022/11/20 01:03:53;;;;;;;14.70;11.13;;;2.60;99.90;;;;;;5058278;28;20493;-70
2022/11/20 01:06:25;;;;;;;13.90;10.60;;;2.70;87.80;;;;;;5056062;28;20462;-70
2022/11/20 01:08:57;;;;;;;16.40;12.03;;;2.60;64.60;;;;;;5057923;28;20472;-70
2022/11/20 01:11:27;;;;;;;13.50;10.57;;;2.70;99.90;;;;;;5058068;28;20553;-70
2022/11/20 01:13:55;;;;;;;14.00;10.13;;;2.60;38.40;;;;;;5039338;28;20467;-70
2022/11/20 01:16:29;;;;;;;14.10;11.07;;;2.60;1.00;;;;;;5038160;28;20521;-70
2022/11/20 01:18:59;;;;;;;14.20;11.10;;;2.60;13.30;;;;;;5038213;28;20524;-70
2022/11/20 01:21:30;;;;;;;15.43;11.97;;;2.60;11.70;;;;;;5037971;28;20865;-70
2022/11/20 01:23:58;;;;;;;16.53;12.00;;;2.70;18.10;;;;;;5051558;28;20764;-70
2022/11/20 01:26:28;;;;;;;16.57;11.83;;;2.70;13.60;;;;;;5057406;28;20883;-70
2022/11/20 01:28:56;;;;;;;17.90;11.90;;;2.70;2.30;;;;;;5037750;28;20473;-70
2022/11/20 01:31:26;;;;;;;19.73;12.57;;;2.70;9.60;;;;;;5037748;28;20466;-70
2022/11/20 01:33:56;;;;;;;17.20;11.70;;;2.70;19.40;;;;;;5047236;28;20757;-70
2022/11/20 01:36:27;;;;;;;17.50;11.30;;;2.70;23.70;;;;;;5057652;28;20469;-69
2022/11/20 01:39:08;;;;;;;15.70;12.53;;;2.70;12.00;;;;;;5057390;28;20519;-69
2022/11/20 01:44:24;;;;;;;16.40;11.83;;;2.70;16.40;;;;;;5047037;28;20890;-69
2022/11/20 01:47:00;;;;;;;15.27;11.37;;;2.80;10.70;;;;;;5037152;28;20521;-69
2022/11/20 01:49:33;;;;;;;15.13;12.30;;;2.80;2.10;;;;;;5037637;28;20566;-69
2022/11/20 01:52:05;;;;;;;15.47;11.27;;;2.70;1.00;;;;;;5037532;28;20851;-69
2022/11/20 01:54:39;;;;;;;19.33;12.00;;;2.70;1.00;;;;;;5044159;28;20473;-69
2022/11/20 01:57:10;;;;;;;15.53;12.37;;;2.80;1.00;;;;;;5057015;28;20950;-69
2022/11/20 01:59:41;;;;;;;18.93;12.73;;;2.70;1.00;;;;;;5057590;28;20465;-69
2022/11/20 02:02:09;;;;;;;19.33;12.47;;;2.80;1.00;;;;;;5056492;28;20476;-69
2022/11/20 02:04:36;;;;;;;17.23;12.10;;;2.70;1.00;;;;;;5053086;28;20460;-69
2022/11/20 02:07:07;;;;;;;16.50;11.97;;;2.70;1.00;;;;;;5037293;28;20855;-69
2022/11/20 02:09:35;;;;;;;16.70;12.17;;;2.60;1.00;;;;;;5037501;28;20445;-69
2022/11/20 02:13:42;;;;;;;16.30;11.83;;;2.60;1.00;;;;;;5037148;28;20926;-69
2022/11/20 02:14:52;;;;;;;16.50;12.27;;;2.60;1.00;;;;;;5038744;28;20459;-68
2022/11/20 02:17:19;;;;;;;16.07;12.40;;;2.60;1.00;;;;;;5057005;28;20564;-69
2022/11/20 02:19:46;;;;;;;16.53;12.53;;;2.60;1.00;;;;;;5056837;28;20561;-69
2022/11/20 02:22:20;;;;;;;17.17;12.67;;;2.70;3.90;;;;;;5055392;28;20487;-69
2022/11/20 02:24:50;;;;;;;18.57;12.87;;;2.70;1.00;;;;;;5057573;28;20477;-68
2022/11/20 02:27:18;;;;;;;16.80;12.83;;;2.70;1.00;;;;;;5056470;28;20466;-68
2022/11/20 02:29:51;;;;;;;16.80;13.20;;;2.70;1.00;;;;;;5056630;28;20523;-69
2022/11/20 02:32:23;;;;;;;18.03;12.73;;;2.70;1.00;;;;;;5053388;28;20433;-68
2022/11/20 02:34:54;;;;;;;16.17;11.40;;;2.70;1.00;;;;;;5038101;28;20482;-68
2022/11/20 02:37:22;;;;;;;16.10;11.70;;;2.70;1.00;;;;;;5040657;28;20474;-68
2022/11/20 02:39:54;;;;;;;17.40;12.90;;;2.70;1.00;;;;;;5040586;28;20524;-68
2022/11/20 02:42:21;;;;;;;18.40;13.43;;;2.70;1.00;;;;;;5040684;28;20814;-68
2022/11/20 02:44:49;;;;;;;17.17;12.40;;;2.70;1.00;;;;;;5058914;28;20447;-68
2022/11/20 02:47:16;;;;;;;18.83;13.37;;;2.70;1.00;;;;;;5060753;28;20440;-68
2022/11/20 02:49:43;;;;;;;20.53;12.80;;;2.70;1.00;;;;;;5060431;28;20463;-68
2022/11/20 02:52:11;;;;;;;19.67;13.40;;;2.70;1.00;;;;;;5060542;28;20934;-68
2022/11/20 02:54:39;;;;;;;19.73;13.33;;;2.70;1.00;;;;;;5046293;28;20923;-68
2022/11/20 02:57:08;;;;;;;23.27;13.87;;;2.70;1.00;;;;;;5040204;28;20557;-68
2022/11/20 02:59:35;;;;;;;17.63;12.90;;;2.70;1.00;;;;;;5041762;28;20915;-68
2022/11/20 03:02:02;;;;;;;17.00;11.63;;;2.70;1.00;;;;;;5040189;28;20539;-68
2022/11/20 03:04:30;;;;;;;17.37;13.17;;;2.70;1.00;;;;;;5048289;28;20466;-68
2022/11/20 03:06:59;;;;;;;18.93;14.03;;;2.70;1.00;;;;;;5058591;28;20871;-68
2022/11/20 03:09:28;;;;;;;19.57;14.00;;;2.70;1.00;;;;;;5060595;28;20458;-68
2022/11/20 03:11:55;;;;;;;19.70;13.90;;;2.70;1.00;;;;;;5060321;28;20461;-68
2022/11/20 03:14:24;;;;;;;18.13;13.87;;;2.70;1.00;;;;;;5055733;28;20561;-69
2022/11/20 03:16:52;;;;;;;20.27;13.67;;;2.70;1.00;;;;;;5040104;28;20477;-68
2022/11/20 03:19:21;;;;;;;21.70;14.63;;;2.70;3.50;;;;;;5041192;28;20463;-68
2022/11/20 03:21:48;;;;;;;20.73;14.93;;;2.70;7.40;;;;;;5039626;28;20533;-68
2022/11/20 03:24:16;;;;;;;19.07;14.20;;;2.70;27.50;;;;;;5053562;28;20437;-68
2022/11/20 03:26:43;;;;;;;18.90;13.90;;;2.70;27.40;;;;;;5039652;28;20809;-68
2022/11/20 03:29:11;;;;;;;22.13;13.80;;;2.70;26.30;;;;;;5041431;28;20500;-68
2022/11/20 03:31:41;;;;;;;21.17;15.43;;;2.70;38.00;;;;;;5040375;28;20721;-68
2022/11/20 03:34:09;;;;;;;20.97;13.70;;;2.70;50.70;;;;;;5039607;28;20464;-68
2022/11/20 03:36:39;;;;;;;18.70;13.30;;;2.70;63.60;;;;;;5040808;28;20467;-68
2022/11/20 03:39:06;;;;;;;21.50;14.20;;;2.70;75.20;;;;;;5039928;28;20888;-68
2022/11/20 03:41:37;;;;;;;18.33;13.50;;;2.70;77.80;;;;;;5059217;28;20934;-68
2022/11/20 03:44:07;;;;;;;20.60;14.33;;;2.80;66.40;;;;;;5059514;28;20539;-68
2022/11/20 03:46:35;;;;;;;22.23;14.23;;;2.70;75.40;;;;;;5048164;28;20467;-68
2022/11/20 03:49:04;;;;;;;20.27;15.43;;;2.70;94.70;;;;;;5038846;28;20466;-68
2022/11/20 03:51:34;;;;;;;22.57;15.40;;;2.70;97.30;;;;;;5039690;28;20905;-68
2022/11/20 03:54:03;;;;;;;20.10;14.47;;;2.80;99.90;;;;;;5039645;28;20458;-68
2022/11/20 03:56:32;;;;;;;21.97;14.97;;;2.80;93.70;;;;;;5045650;28;20507;-68
2022/11/20 03:59:02;;;;;;;19.10;14.17;;;2.80;93.80;;;;;;5059666;28;20472;-68
2022/11/20 04:01:33;;;;;;;22.83;15.83;;;2.70;97.90;;;;;;5058954;28;20456;-68
2022/11/20 04:04:00;;;;;;;20.23;15.57;;;2.70;66.90;;;;;;5059084;28;20557;-68
2022/11/20 04:06:31;;;;;;;22.60;14.13;;;2.60;51.40;;;;;;5045003;28;20908;-67
2022/11/20 04:08:59;;;;;;;22.73;16.03;;;2.60;94.00;;;;;;5040304;28;20501;-67
2022/11/20 04:11:28;;;;;;;20.03;15.17;;;2.70;99.90;;;;;;5039490;28;20467;-68
2022/11/20 04:13:56;;;;;;;21.57;15.67;;;2.70;99.90;;;;;;5039288;28;20880;-68
2022/11/20 04:16:25;;;;;;;19.63;14.43;;;2.70;99.90;;;;;;5048206;28;20775;-68
2022/11/20 04:18:54;;;;;;;22.90;15.70;;;2.70;99.90;;;;;;5059405;28;20462;-67
2022/11/20 04:21:22;;;;;;;23.70;16.00;;;2.70;99.90;;;;;;5057093;28;20486;-68
2022/11/20 04:23:52;;;;;;;20.27;14.53;;;2.70;99.90;;;;;;5058771;28;20462;-67
2022/11/20 04:26:20;;;;;;;23.90;16.80;;;2.70;99.90;;;;;;5056635;28;20557;-68
2022/11/20 04:28:50;;;;;;;21.87;14.97;;;2.60;99.90;;;;;;5056684;28;20561;-68
2022/11/20 04:31:24;;;;;;;20.67;14.70;;;2.60;99.90;;;;;;5058443;28;20433;-68
2022/11/20 04:33:52;;;;;;;19.70;15.20;;;2.60;99.90;;;;;;5058342;28;20474;-68
2022/11/20 04:36:21;;;;;;;25.33;16.00;;;2.70;99.90;;;;;;5056115;28;20448;-68
2022/11/20 04:38:53;;;;;;;23.83;16.13;;;2.60;99.90;;;;;;5038838;28;20463;-68
2022/11/20 04:41:22;;;;;;;21.23;14.93;;;2.70;99.90;;;;;;5038475;28;20509;-67
2022/11/20 04:43:50;;;;;;;20.40;14.97;;;2.70;99.90;;;;;;5038196;28;20463;-67
2022/11/20 04:46:18;;;;;;;20.67;14.40;;;2.70;99.90;;;;;;5038428;28;20466;-67
2022/11/20 04:48:46;;;;;;;23.87;15.30;;;2.60;99.90;;;;;;5055728;28;20553;-68
2022/11/20 04:51:15;;;;;;;21.87;15.00;;;2.60;99.90;;;;;;5058234;28;20983;-68
2022/11/20 04:53:43;;;;;;;21.83;14.70;;;2.50;99.90;;;;;;5058387;28;20466;-68
2022/11/20 04:56:13;;;;;;;21.77;15.23;;;2.50;99.90;;;;;;5058434;28;20466;-67
2022/11/20 04:58:41;;;;;;;21.77;14.03;;;2.40;99.90;;;;;;5043940;28;20470;-67
2022/11/20 05:01:10;;;;;;;19.67;14.33;;;2.40;99.90;;;;;;5037986;28;20463;-68
2022/11/20 05:03:38;;;;;;;21.70;14.77;;;2.40;99.90;;;;;;5037798;28;20483;-68
2022/11/20 05:06:08;;;;;;;22.73;15.80;;;2.40;99.90;;;;;;5038042;28;20474;-67
2022/11/20 05:08:35;;;;;;;20.80;14.43;;;2.40;99.90;;;;;;5045995;28;20462;-67
2022/11/20 05:11:03;;;;;;;28.63;16.47;;;2.40;1.00;;;;;;5058269;28;20488;-68
2022/11/20 05:13:34;;;;;;;24.17;16.10;;;2.40;1.00;;;;;;5056376;28;20911;-67
2022/11/20 05:16:05;;;;;;;22.37;15.90;;;2.50;1.00;;;;;;5057537;28;20458;-68
2022/11/20 05:18:35;;;;;;;28.13;17.37;;;2.40;1.00;;;;;;5054005;28;20460;-68
2022/11/20 05:21:04;;;;;;;24.07;16.67;;;2.40;1.00;;;;;;5038282;28;20470;-67
2022/11/20 05:23:36;;;;;;;23.60;16.53;;;2.40;1.00;;;;;;5044915;28;20537;-67
2022/11/20 05:26:04;;;;;;;18.80;13.60;;;2.50;1.00;;;;;;5057746;28;20454;-67
2022/11/20 05:28:34;;;;;;;16.07;11.93;;;2.50;99.90;;;;;;5046119;28;20465;-67
2022/11/20 05:31:09;;;;;;;17.13;12.20;;;2.40;99.90;;;;;;5037620;28;20802;-68
2022/11/20 05:33:41;;;;;;;16.37;11.47;;;2.30;99.90;;;;;;5039521;28;20872;-67
2022/11/20 05:36:09;;;;;;;16.37;11.73;;;2.20;99.90;;;;;;5057399;28;20463;-67
2022/11/20 05:38:41;;;;;;;18.20;13.90;;;2.30;99.90;;;;;;5055888;28;20920;-67
2022/11/20 05:41:10;;;;;;;19.50;13.67;;;2.30;99.90;;;;;;5057479;28;20432;-68
2022/11/20 05:43:41;;;;;;;20.57;14.73;;;2.30;99.90;;;;;;5057468;28;20458;-67
2022/11/20 05:46:09;;;;;;;20.60;13.57;;;2.30;99.90;;;;;;5037626;28;20823;-67
2022/11/20 05:48:37;;;;;;;17.47;13.10;;;2.30;99.90;;;;;;5037775;28;20463;-67
2022/11/20 05:51:07;;;;;;;20.10;14.20;;;2.30;99.90;;;;;;5049402;28;20879;-68
2022/11/20 05:53:38;;;;;;;21.47;13.13;;;2.30;99.90;;;;;;5057705;28;20458;-67
2022/11/20 05:56:08;;;;;;;23.17;14.10;;;2.30;99.90;;;;;;5056072;28;20466;-68
2022/11/20 05:58:35;;;;;;;19.53;14.40;;;2.20;99.90;;;;;;5055503;28;20535;-68
2022/11/20 06:01:09;;;;;;;22.47;13.90;;;2.20;99.90;;;;;;5057304;28;20752;-68
2022/11/20 06:03:40;;;;;;;19.50;14.43;;;2.20;99.90;;;;;;5056675;28;20851;-67
2022/11/20 06:06:07;;;;;;;25.27;14.60;;;2.20;99.90;;;;;;5044565;28;20474;-67
2022/11/20 06:08:35;;;;;;;19.13;13.87;;;2.30;99.90;;;;;;5037341;28;20657;-67
2022/11/20 06:11:05;;;;;;;22.07;14.90;;;2.20;99.90;;;;;;5052507;28;20449;-68
2022/11/20 06:13:33;;;;;;;22.77;15.30;;;2.20;99.90;;;;;;5057566;28;20432;-67
2022/11/20 06:16:03;;;;;;;19.73;14.60;;;2.30;99.90;;;;;;5056949;28;20879;-68
2022/11/20 06:18:34;;;;;;;21.93;15.13;;;2.30;99.90;;;;;;5056510;28;20461;-68
2022/11/20 06:21:03;;;;;;;21.97;14.10;;;2.20;99.90;;;;;;5043747;28;20866;-68
2022/11/20 06:23:32;;;;;;;20.93;15.10;;;2.20;99.90;;;;;;5037237;28;20602;-68
2022/11/20 06:26:01;;;;;;;18.20;12.77;;;2.20;99.90;;;;;;5037237;28;20914;-68
2022/11/20 06:28:29;;;;;;;17.67;12.50;;;2.10;99.90;;;;;;5037141;28;20902;-67
2022/11/20 06:30:57;;;;;;;18.60;12.60;;;2.10;99.90;;;;;;5043065;28;21007;-68
2022/11/20 06:33:27;;;;;;;22.80;13.90;;;2.10;99.90;;;;;;5057049;28;20462;-67
2022/11/20 06:35:58;;;;;;;17.93;12.77;;;2.10;99.90;;;;;;5055993;28;20466;-68
2022/11/20 06:38:31;;;;;;;18.30;12.73;;;2.10;99.90;;;;;;5057149;28;20802;-68
2022/11/20 06:41:00;;;;;;;16.77;10.70;;;2.10;99.90;;;;;;5054443;28;20470;-68
2022/11/20 06:43:29;;;;;;;16.90;12.53;;;2.00;99.90;;;;;;5037246;28;20473;-68
2022/11/20 06:45:58;;;;;;;17.73;12.20;;;2.00;99.90;;;;;;5036534;28;20467;-68
2022/11/20 06:48:27;;;;;;;15.90;12.40;;;2.00;99.90;;;;;;5036410;28;20550;-67
2022/11/20 06:50:56;;;;;;;22.10;14.80;;;2.00;99.90;;;;;;5036399;28;20459;-68
2022/11/20 06:53:24;;;;;;;23.83;16.63;;;2.10;99.90;;;;;;5055180;28;20787;-68
2022/11/20 06:55:56;;;;;;;20.30;14.60;;;2.10;99.90;;;;;;5070226;28;20459;-68
2022/11/20 06:58:23;;;;;;;20.30;14.50;;;2.20;99.90;;;;;;5056748;28;20521;-67
2022/11/20 07:00:50;;;;;;;20.60;14.37;;;2.20;99.90;;;;;;5066159;28;20467;-67
2022/11/20 07:03:18;;;;;;;20.73;16.03;;;2.20;99.90;;;;;;5061633;28;20585;-68
2022/11/20 07:05:45;;;;;;;22.07;14.83;;;2.30;99.90;;;;;;5064355;28;20489;-67
2022/11/20 07:08:14;;;;;;;19.97;15.30;;;2.30;99.90;;;;;;5062210;28;20461;-68
2022/11/20 07:10:58;;;;;;;20.43;14.07;;;2.30;99.90;;;;;;5062289;28;20458;-67
2022/11/20 07:13:25;;;;;;;21.27;15.20;;;2.40;99.90;;;;;;5062819;28;20478;-68
2022/11/20 07:15:53;;;;;;;23.30;16.53;;;2.40;99.90;;;;;;5042955;28;20471;-67
2022/11/20 07:18:22;;;;;;;19.87;14.63;;;2.50;37.70;;;;;;5036607;28;20958;-68
2022/11/20 07:20:49;;;;;;;20.20;14.80;;;2.30;1.00;;;;;;5036920;28;20441;-68
2022/11/20 07:23:18;;;;;;;23.30;15.77;;;2.20;1.00;;;;;;5038792;28;20883;-68
2022/11/20 07:25:46;;;;;;;19.77;15.80;;;2.40;13.50;;;;;;5040913;28;20926;-68
2022/11/20 07:28:16;;;;;;;17.37;13.53;;;2.40;29.80;;;;;;5039775;28;20744;-68
2022/11/20 07:30:43;;;;;;;19.83;15.23;;;2.50;1.00;;;;;;5040295;28;20467;-68
2022/11/20 07:33:10;;;;;;;20.23;13.60;;;2.50;1.00;;;;;;5052619;28;20498;-67
2022/11/20 07:35:38;;;;;;;23.10;14.30;;;2.50;1.00;;;;;;5059917;28;20548;-67
2022/11/20 07:38:05;;;;;;;17.20;13.07;;;2.60;1.00;;;;;;5060118;28;20462;-68
2022/11/20 07:40:36;;;;;;;20.50;14.77;;;2.60;1.00;;;;;;5059213;28;20464;-67
2022/11/20 07:43:03;;;;;;;18.10;14.13;;;2.60;1.00;;;;;;5058366;28;20486;-68
2022/11/20 07:45:30;;;;;;;15.97;12.43;;;2.70;1.00;;;;;;5058617;28;20773;-67
2022/11/20 07:47:58;;;;;;;14.53;12.00;;;2.70;1.00;;;;;;5058995;28;20561;-67
2022/11/20 07:50:25;;;;;;;19.50;15.07;;;2.70;1.00;;;;;;5058419;28;20519;-68
2022/11/20 07:52:52;;;;;;;22.77;15.60;;;2.70;1.00;;;;;;5053672;28;20802;-68
2022/11/20 07:55:19;;;;;;;19.17;14.50;;;2.70;1.00;;;;;;5039162;28;20762;-68
2022/11/20 07:57:56;;;;;;;20.17;14.03;;;2.70;1.00;;;;;;5039863;28;20488;-67
2022/11/20 08:00:24;;;;;;;16.10;11.93;;;2.70;1.00;;;;;;5039400;28;20473;-68
2022/11/20 08:02:51;;;;;;;28.37;22.17;;;2.70;1.00;;;;;;5038350;28;20502;-68
2022/11/20 08:05:19;;;;;;;18.40;14.67;;;2.80;1.00;;;;;;5059371;28;20458;-68
2022/11/20 08:07:47;;;;;;;16.27;12.10;;;2.70;1.00;;;;;;5055949;28;20922;-67
2022/11/20 08:10:18;;;;;;;17.50;14.93;;;2.60;1.00;;;;;;5040570;28;20888;-68
2022/11/20 08:15:34;;;;;;;16.40;12.47;;;2.60;1.00;;;;;;5039483;28;20878;-67
2022/11/20 08:18:06;;;;;;;16.93;13.60;;;2.90;1.00;;;;;;5039128;28;20781;-67
2022/11/20 08:20:36;;;;;;;15.53;12.50;;;2.90;1.00;;;;;;5056028;28;20540;-67
2022/11/20 08:23:09;;;;;;;16.97;12.57;;;2.90;1.00;;;;;;5057570;28;20487;-67
2022/11/20 08:25:40;;;;;;;14.23;11.60;;;3.00;1.00;;;;;;5058493;28;20459;-68
2022/11/20 08:28:11;;;;;;;14.20;11.37;;;3.10;1.00;;;;;;5058629;28;20898;-67
2022/11/20 08:30:39;;;;;;;16.20;12.20;;;3.10;1.00;;;;;;5044464;28;20867;-68
2022/11/20 08:33:08;;;;;;;14.50;11.37;;;3.30;1.00;;;;;;5038843;28;20904;-67
2022/11/20 08:35:36;;;;;;;13.77;10.80;;;3.70;1.00;;;;;;5038317;28;20863;-67
2022/11/20 08:38:04;;;;;;;15.57;11.73;;;3.90;1.00;;;;;;5038194;28;20438;-68
2022/11/20 08:40:34;;;;;;;16.17;11.07;;;4.20;99.90;;;;;;5055776;28;20473;-67
2022/11/20 08:43:02;;;;;;;12.20;10.47;;;4.40;99.90;;;;;;5058126;28;20485;-67
2022/11/20 08:45:30;;;;;;;13.73;8.73;;;4.50;99.90;;;;;;5058510;28;20441;-67
2022/11/20 08:48:04;;;;;;;12.20;9.17;;;4.50;99.90;;;;;;5057975;28;20437;-67
2022/11/20 08:50:33;;;;;;;9.73;7.60;;;4.60;99.90;;;;;;5057348;28;20552;-67
2022/11/20 08:53:04;;;;;;;12.50;9.60;;;4.20;99.90;;;;;;5058549;28;20456;-67
2022/11/20 08:55:31;;;;;;;10.67;8.67;;;4.30;99.90;;;;;;5058279;28;20781;-67
2022/11/20 08:57:59;;;;;;;9.00;6.93;;;3.90;99.90;;;;;;5057916;28;20471;-68
2022/11/20 09:00:29;;;;;;;11.83;7.90;;;3.80;99.90;;;;;;5047260;28;20513;-67
2022/11/20 09:03:00;;;;;;;9.53;7.43;;;3.70;99.90;;;;;;5037142;28;20589;-67
2022/11/20 09:05:28;;;;;;;7.57;5.97;;;3.50;99.90;;;;;;5038347;28;20566;-67
2022/11/20 09:07:57;;;;;;;8.10;6.50;;;3.60;99.90;;;;;;5037868;28;20495;-67
2022/11/20 09:10:25;;;;;;;12.17;7.87;;;3.70;99.90;;;;;;5045807;28;20490;-68
2022/11/20 09:12:52;;;;;;;10.13;7.13;;;3.70;99.90;;;;;;5057680;28;20747;-68
2022/11/20 09:15:21;;;;;;;9.67;7.70;;;3.80;99.90;;;;;;5038516;28;20558;-68
2022/11/20 09:17:52;;;;;;;9.40;7.40;;;3.90;99.90;;;;;;5066913;28;20435;-68
2022/11/20 09:20:21;;;;;;;8.27;6.73;;;4.00;99.90;;;;;;5059830;28;20445;-68
2022/11/20 09:22:49;;;;;;;10.10;7.90;;;3.80;99.90;;;;;;5055716;28;20898;-68
2022/11/20 09:25:17;;;;;;;10.70;8.43;;;3.90;99.90;;;;;;5046390;28;20887;-68
2022/11/20 09:27:48;;;;;;;12.77;8.40;;;3.90;99.90;;;;;;5048146;28;20519;-68
2022/11/20 09:30:20;;;;;;;12.40;7.83;;;3.90;99.90;;;;;;5059423;28;20576;-69
2022/11/20 09:32:50;;;;;;;13.93;9.37;;;3.90;99.90;;;;;;5068164;28;20468;-68
2022/11/20 09:35:17;;;;;;;9.97;7.83;;;3.80;99.90;;;;;;5037691;28;20570;-68
2022/11/20 09:37:46;;;;;;;9.40;7.77;;;3.80;99.90;;;;;;5036862;28;20541;-68
2022/11/20 09:40:23;;;;;;;9.50;7.13;;;3.80;99.90;;;;;;5037132;28;20464;-68
2022/11/20 09:43:00;;;;;;;9.77;7.20;;;3.80;99.90;;;;;;5038320;28;20581;-69
2022/11/20 09:45:47;;;;;;;9.80;7.47;;;3.80;99.90;;;;;;5036641;28;20559;-68
2022/11/20 09:48:37;;;;;;;9.17;7.70;;;3.80;99.90;;;;;;5037261;28;20510;-68
2022/11/20 09:51:14;;;;;;;10.63;7.13;;;3.80;99.90;;;;;;5037341;28;20462;-68
2022/11/20 09:53:56;;;;;;;9.17;7.63;;;3.80;99.90;;;;;;5054439;28;20553;-68
2022/11/20 09:56:25;;;;;;;8.30;7.00;;;4.00;99.90;;;;;;5054903;28;20455;-68
2022/11/20 09:58:55;;;;;;;8.97;6.43;;;4.10;99.90;;;;;;5057717;28;20492;-68
2022/11/20 10:01:27;;;;;;;9.37;7.53;;;4.20;99.90;;;;;;5057023;28;20506;-69
2022/11/20 10:04:01;;;;;;;8.70;7.00;;;4.20;99.90;;;;;;5047389;28;20502;-68
2022/11/20 10:06:32;;;;;;;9.57;7.10;;;4.10;99.90;;;;;;5055680;28;20462;-68
2022/11/20 10:09:26;;;;;;;11.90;9.90;;;4.40;99.90;;;;;;5036288;28;20459;-68
2022/11/20 10:12:07;;;;;;;9.47;8.47;;;4.70;99.90;;;;;;5037072;28;20508;-68
2022/11/20 10:14:52;;;;;;;9.63;7.67;;;4.90;99.90;;;;;;5054207;28;20755;-68
2022/11/20 10:17:32;;;;;;;19.60;13.43;;;5.00;99.90;;;;;;5055282;28;20433;-68
2022/11/20 10:20:14;;;;;;;10.73;7.93;;;5.10;99.90;;;;;;5056855;28;20906;-68
2022/11/20 10:22:57;;;;;;;10.57;7.60;;;5.30;99.90;;;;;;5055237;28;20472;-68
2022/11/20 10:25:32;;;;;;;9.60;7.67;;;5.30;99.90;;;;;;5036641;28;20522;-68
2022/11/20 10:28:21;;;;;;;12.23;9.13;;;5.10;99.90;;;;;;5035079;28;20525;-65
2022/11/20 10:30:56;;;;;;;10.40;8.60;;;5.00;99.90;;;;;;5036093;28;20731;-65
2022/11/20 10:33:26;;;;;;;10.33;9.07;;;4.80;99.90;;;;;;5036202;28;20884;-65
2022/11/20 10:36:03;;;;;;;10.17;8.10;;;4.70;99.90;;;;;;5056186;28;20454;-65
2022/11/20 10:38:37;;;;;;;12.07;10.13;;;4.70;99.90;;;;;;5056431;28;20528;-65
2022/11/20 10:41:29;;;;;;;10.00;8.07;;;4.70;99.90;;;;;;5057049;28;20915;-65
2022/11/20 10:44:04;;;;;;;12.00;9.20;;;4.60;99.90;;;;;;5055355;28;20583;-66
2022/11/20 10:46:43;;;;;;;11.77;9.23;;;4.70;99.90;;;;;;5036491;28;20814;-66
2022/11/20 10:49:19;;;;;;;10.80;8.90;;;4.70;99.90;;;;;;5038097;28;20463;-66
2022/11/20 10:52:00;;;;;;;11.97;9.40;;;4.80;99.90;;;;;;5036653;28;20557;-65
2022/11/20 10:54:40;;;;;;;12.50;8.77;;;4.90;99.90;;;;;;5036769;28;20498;-65
2022/11/20 10:57:19;;;;;;;15.00;11.43;;;4.90;99.90;;;;;;5056474;28;20462;-65
2022/11/20 11:00:01;;;;;;;13.07;10.27;;;4.90;99.90;;;;;;5060128;28;20936;-65
2022/11/20 11:02:36;;;;;;;13.10;9.80;;;4.80;99.90;;;;;;5068900;28;20872;-65
2022/11/20 11:05:15;;;;;;;13.93;10.03;;;4.90;99.90;;;;;;5065989;28;20523;-65
2022/11/20 11:07:45;;;;;;;13.90;10.00;;;4.70;99.90;;;;;;5066335;28;20937;-65
2022/11/20 11:10:18;;;;;;;16.57;12.20;;;4.80;99.90;;;;;;5067073;28;20657;-65
2022/11/20 11:12:48;;;;;;;15.20;10.63;;;4.80;99.90;;;;;;5067230;28;20913;-65
2022/11/20 11:15:27;;;;;;;13.83;10.50;;;4.90;99.90;;;;;;5067026;28;20450;-65
2022/11/20 11:17:58;;;;;;;15.50;12.17;;;4.90;99.90;;;;;;5066002;28;20453;-65
2022/11/20 11:20:26;;;;;;;14.27;10.77;;;4.80;99.90;;;;;;5068390;28;20913;-65
2022/11/20 11:22:59;;;;;;;16.83;11.93;;;4.90;99.90;;;;;;5066219;28;20474;-65
2022/11/20 11:25:30;;;;;;;19.63;12.70;;;5.00;99.90;;;;;;5066528;28;20451;-65
2022/11/20 11:28:02;;;;;;;16.80;13.20;;;4.90;99.90;;;;;;5066308;28;20896;-65
2022/11/20 11:30:31;;;;;;;19.00;13.80;;;4.90;99.90;;;;;;5067615;28;20454;-64
2022/11/20 11:33:07;;;;;;;19.70;14.27;;;4.80;99.90;;;;;;5064258;28;20504;-64
2022/11/20 11:35:34;;;;;;;18.50;13.97;;;4.90;99.90;;;;;;5067587;28;20489;-65
2022/11/20 11:38:08;;;;;;;19.90;14.10;;;4.80;99.90;;;;;;5068396;28;20804;-64
2022/11/20 11:40:38;;;;;;;22.27;16.23;;;4.80;99.90;;;;;;5067218;28;20469;-64
2022/11/20 11:45:04;;;;;;;18.40;13.90;;;4.80;99.90;;;;;;5068168;28;20546;-65
2022/11/20 11:46:27;;;;;;;17.50;13.93;;;5.00;99.90;;;;;;5068170;28;20452;-65
2022/11/20 11:49:02;;;;;;;21.20;15.20;;;5.10;99.90;;;;;;5065241;28;20433;-64
2022/11/20 11:51:39;;;;;;;17.03;13.70;;;5.00;99.90;;;;;;5068797;28;20453;-64
2022/11/20 11:54:17;;;;;;;17.90;12.77;;;5.10;99.90;;;;;;5065970;28;20487;-65
2022/11/20 11:56:45;;;;;;;19.67;14.97;;;5.10;99.90;;;;;;5065548;28;20883;-65
2022/11/20 11:59:24;;;;;;;17.37;14.57;;;5.10;99.90;;;;;;5057936;28;20462;-65
2022/11/20 12:01:58;;;;;;;18.90;14.30;;;5.10;99.90;;;;;;5055982;28;20536;-65
2022/11/20 12:04:38;;;;;;;18.30;14.93;;;5.10;99.90;;;;;;5057848;28;20558;-65
2022/11/20 12:07:13;;;;;;;18.40;15.07;;;5.10;99.90;;;;;;5058670;28;20469;-65
2022/11/20 12:09:49;;;;;;;17.33;14.60;;;5.00;99.90;;;;;;5039940;28;20462;-65
2022/11/20 12:12:20;;;;;;;17.80;13.60;;;5.00;99.90;;;;;;5039450;28;20464;-65
2022/11/20 12:14:52;;;;;;;18.27;14.13;;;5.00;99.90;;;;;;5039771;28;20931;-65
2022/11/20 12:17:19;;;;;;;20.70;14.73;;;4.90;99.90;;;;;;5039530;28;20510;-64
2022/11/20 12:19:47;;;;;;;19.17;14.90;;;5.00;99.90;;;;;;5054506;28;20463;-65
2022/11/20 12:22:28;;;;;;;19.97;14.47;;;5.00;99.90;;;;;;5058457;28;20466;-65
2022/11/20 12:25:04;;;;;;;16.67;12.97;;;5.10;99.90;;;;;;5058948;28;20516;-65
2022/11/20 12:28:02;;;;;;;18.23;14.27;;;5.10;99.90;;;;;;5059205;28;20553;-64
2022/11/20 12:30:35;;;;;;;21.80;16.60;;;5.10;99.90;;;;;;5043670;28;20465;-65
2022/11/20 12:33:21;;;;;;;18.30;14.40;;;5.10;99.90;;;;;;5057880;28;20910;-64
2022/11/20 12:36:13;;;;;;;18.60;13.53;;;5.20;99.90;;;;;;5057764;28;20870;-64
2022/11/20 12:39:06;;;;;;;20.37;14.97;;;5.10;99.90;;;;;;5054805;28;20451;-66
2022/11/20 12:45:12;;;;;;;18.40;14.17;;;5.30;99.90;;;;;;5039308;28;20493;-66
2022/11/20 12:48:27;;;;;;;18.47;14.37;;;5.50;99.90;;;;;;5037494;28;20817;-66
2022/11/20 12:51:11;;;;;;;21.50;14.90;;;5.60;99.90;;;;;;4995088;28;20537;-66
2022/11/20 12:53:45;;;;;;;20.80;14.03;;;5.70;99.90;;;;;;5041547;28;20501;-66
2022/11/20 12:56:26;;;;;;;19.70;14.67;;;5.70;99.90;;;;;;5057724;28;20439;-66
2022/11/20 12:59:06;;;;;;;18.83;14.43;;;5.70;99.90;;;;;;5058202;28;20458;-66
2022/11/20 13:01:49;;;;;;;18.63;13.67;;;5.80;99.90;;;;;;5054955;28;20462;-66
2022/11/20 13:04:35;;;;;;;16.60;13.97;;;5.80;99.90;;;;;;5037992;28;20491;-66
2022/11/20 13:07:06;;;;;;;18.90;14.67;;;5.70;99.90;;;;;;5039724;28;20974;-66
2022/11/20 13:09:44;;;;;;;21.47;14.87;;;5.80;99.90;;;;;;5057228;28;20753;-66
2022/11/20 13:12:16;;;;;;;20.43;13.70;;;5.70;99.90;;;;;;5056715;28;20466;-66
2022/11/20 13:14:51;;;;;;;22.33;15.80;;;5.70;99.90;;;;;;5056259;28;20815;-66